Donja Bistra HR Speed Test Log

Averages  Max Speed    
1 to 25 of 144** for City Donja Bistra HR
Time
  
  Speed   Provider Size    User ConnectID   TestID  
2/2/19 4:54:35 pm 21.21 Mbps 2.65 MB/sHrvatski 44.4 MB8541532322572 njmJIyR-5 
6/15/18 7:32:46 pm 46 Mbps 5.75 MB/sHrvatski 200 MB85412929822 M2ghqleEH 
6/15/18 7:23:53 pm 47.56 Mbps 5.95 MB/sHrvatski 200 MB85412929822 Pr2HOmiGa 
6/15/18 7:23:08 pm 46.76 Mbps 5.85 MB/sHrvatski 44.5 MB85412929822 ULneS4wO6 
5/10/18 6:36:33 pm 272 kbps 34 kB/sOptima 256 kB818013163819 9EOt3xBYF 
5/10/18 5:25:35 pm 265 kbps 33 kB/sOptima 368 kB818013163819 bKoUYOEcN 
4/15/18 8:08:01 am 10.63 Mbps 1.33 MB/sOptima 18.1 MB8180131506720 hcN9CBqIH 
4/1/18 7:45:08 pm 9.11 Mbps 1.14 MB/sOptima 6.4 MB8180131598516 93BO7cthM 
3/20/18 9:40:27 pm 295 kbps 37 kB/sOptima 256 kB8180131603652 oASiUsjnq 
3/20/18 9:40:18 pm 2.48 Mbps 310 kB/sOptima 3.4 MB8180131603652 kjQcgpyrS 
3/20/18 9:39:15 pm 244 kbps 31 kB/sOptima 256 kB8180131603652 sh8LgtNfc 
3/20/18 9:39:00 pm 1.08 Mbps 135 kB/sOptima 1.6 MB8180131603652 vwTl57yWE 
3/20/18 8:52:11 pm 313 kbps 39 kB/sOptima 256 kB8180131603652 YOgAxZHzB 
3/20/18 8:52:03 pm 2.31 Mbps 288 kB/sOptima 4.4 MB8180131603652 4woOs7d5n 
3/20/18 8:33:46 pm 285 kbps 36 kB/sOptima 256 kB8180131603652 KfphMOJH4 
3/20/18 8:33:34 pm 930 kbps 116 kB/sOptima 1.3 MB8180131603652 nX3lJxThC 
3/20/18 8:17:29 pm 236 kbps 30 kB/sOptima 256 kB8180131603652 aXJquyUYA 
3/20/18 12:28:42 pm 902 kbps 113 kB/sOptima 480 kB8180131597874 fBdjhLbt6 
12/20/17 7:56:29 pm 20.84 Mbps 2.6 MB/sHrvatski 44.4 MB85413307827 0oXjp8cfO 
12/12/17 7:50:18 pm 4.03 Mbps 504 kB/sHrvatski 5.8 MB85413265826 QIW0aYcFu 
10/4/17 1:15:30 pm 1.37 Mbps 171 kB/sOptima 896 kB8180131605119 DGvXjlZBN 
10/4/17 1:15:20 pm 6.7 Mbps 837 kB/sOptima 7.3 MB8180131605119 nCGvmcxUX 
10/4/17 8:15:24 am 1.19 Mbps 148 kB/sOptima 824 kB8180131605119 J7e9VdBFq 
10/4/17 8:15:10 am 7.54 Mbps 943 kB/sOptima 6.3 MB8180131605119 0PRGNbtgj 
9/20/17 8:05:11 pm 457 kbps 57 kB/sOptima 480 kB8180131598150 p4ZG0nSFJ 
  
** Partial Results: The most recent results have been displayed. Results over 50 Mbps are highlighted.
Calculated from graphed results above not entire query.
Displaying Internet Speed Test results for City Donja Bistra HR

Minimum

Min 0.93 Mbps : 0.24 Mbps

Average

Avg 16.77 Mbps : 1.25 Mbps

Maximum

Max 47.56 Mbps : 9.11 Mbps

Minimum

Min: 0.93 Mbps : 0.24 Mbps |

Average

Avg: 16.77 Mbps : 1.25 Mbps |

Maximum

Max: 47.56 Mbps : 9.11 Mbps